createdAt,value
2018-12-20T00:02:12.971Z,14.47
2018-12-20T00:04:40.858Z,14.50
2018-12-20T00:07:08.809Z,17.00
2018-12-20T00:09:36.682Z,14.60
2018-12-20T00:12:04.697Z,16.00
2018-12-20T00:14:32.612Z,17.73
2018-12-20T00:17:06.368Z,14.00
2018-12-20T00:19:34.324Z,14.73
2018-12-20T00:22:02.314Z,16.17
2018-12-20T00:24:30.308Z,15.43
2018-12-20T00:26:58.424Z,15.07
2018-12-20T00:29:26.361Z,14.53
2018-12-20T00:31:54.220Z,13.17
2018-12-20T00:34:22.151Z,14.30
2018-12-20T00:36:50.068Z,14.60
2018-12-20T00:39:18.100Z,13.30
2018-12-20T00:41:45.994Z,13.70
2018-12-20T00:44:14.160Z,13.67
2018-12-20T00:46:42.252Z,14.13
2018-12-20T00:49:10.293Z,13.83
2018-12-20T00:51:38.343Z,14.27
2018-12-20T00:54:06.182Z,14.80
2018-12-20T00:56:34.201Z,13.07
2018-12-20T00:59:02.221Z,14.30
2018-12-20T01:01:30.271Z,15.50
2018-12-20T01:03:58.358Z,14.03
2018-12-20T01:06:26.591Z,15.50
2018-12-20T01:08:54.654Z,15.40
2018-12-20T01:11:22.788Z,13.97
2018-12-20T01:13:50.835Z,15.27
2018-12-20T01:16:18.921Z,15.40
2018-12-20T01:18:47.087Z,15.50
2018-12-20T01:21:15.107Z,15.47
2018-12-20T01:23:43.037Z,15.90
2018-12-20T01:26:10.994Z,15.40
2018-12-20T01:28:38.912Z,14.60
2018-12-20T01:31:07.011Z,14.90
2018-12-20T01:33:35.328Z,15.13
2018-12-20T01:36:03.247Z,15.07
2018-12-20T01:38:31.353Z,15.60
2018-12-20T01:40:59.356Z,15.47
2018-12-20T01:43:27.389Z,15.03
2018-12-20T01:45:55.490Z,15.17
2018-12-20T01:48:23.447Z,15.63
2018-12-20T01:50:51.371Z,15.37
2018-12-20T01:53:19.368Z,14.83
2018-12-20T01:55:47.350Z,15.50
2018-12-20T01:58:21.957Z,17.30
2018-12-20T02:00:49.990Z,16.77
2018-12-20T02:03:18.185Z,16.63
2018-12-20T02:05:46.187Z,15.50
2018-12-20T02:08:14.042Z,16.57
2018-12-20T02:10:41.959Z,15.93
2018-12-20T02:13:09.935Z,16.30
2018-12-20T02:15:38.013Z,17.80
2018-12-20T02:18:06.211Z,15.47
2018-12-20T02:20:34.191Z,16.20
2018-12-20T02:23:02.211Z,16.13
2018-12-20T02:25:30.223Z,15.93
2018-12-20T02:27:58.119Z,16.13
2018-12-20T02:30:26.147Z,16.07
2018-12-20T02:32:54.164Z,16.07
2018-12-20T02:35:22.125Z,15.30
2018-12-20T02:37:51.069Z,17.40
2018-12-20T02:40:19.206Z,15.13
2018-12-20T02:42:47.112Z,16.37
2018-12-20T02:45:15.095Z,16.37
2018-12-20T02:47:43.026Z,15.67
2018-12-20T02:50:11.095Z,15.93
2018-12-20T02:52:39.110Z,16.30
2018-12-20T02:55:07.098Z,16.87
2018-12-20T02:57:34.989Z,16.97
2018-12-20T03:00:03.711Z,16.20
2018-12-20T03:02:31.580Z,16.60
2018-12-20T03:04:59.602Z,17.30
2018-12-20T03:07:27.617Z,16.93
2018-12-20T03:09:55.781Z,17.17
2018-12-20T03:12:24.107Z,17.37
2018-12-20T03:14:52.404Z,16.30
2018-12-20T03:17:20.467Z,16.53
2018-12-20T03:19:48.610Z,17.53
2018-12-20T03:22:16.795Z,16.67
2018-12-20T03:24:44.773Z,17.33
2018-12-20T03:27:12.841Z,15.13
2018-12-20T03:29:40.788Z,16.17
2018-12-20T03:32:08.741Z,15.97
2018-12-20T03:34:36.579Z,16.33
2018-12-20T03:37:04.409Z,16.13
2018-12-20T03:39:32.224Z,17.00
2018-12-20T03:42:00.123Z,16.60
2018-12-20T03:44:27.983Z,16.40
2018-12-20T03:46:56.038Z,17.83
2018-12-20T03:49:24.076Z,16.57
2018-12-20T03:51:52.063Z,16.40
2018-12-20T03:54:20.009Z,16.23
2018-12-20T03:56:48.053Z,17.00
2018-12-20T03:59:15.999Z,15.43
2018-12-20T04:01:44.023Z,16.80
2018-12-20T04:04:11.957Z,17.53
2018-12-20T04:06:39.993Z,17.33
2018-12-20T04:09:08.059Z,16.03
2018-12-20T04:11:35.983Z,16.13
2018-12-20T04:14:04.093Z,16.17
2018-12-20T04:16:32.061Z,17.33
2018-12-20T04:19:00.221Z,17.10
2018-12-20T04:21:28.332Z,16.77
2018-12-20T04:23:58.515Z,17.70
2018-12-20T04:26:26.624Z,16.83
2018-12-20T04:28:54.489Z,17.47
2018-12-20T04:31:22.322Z,16.30
2018-12-20T04:33:50.547Z,17.00
2018-12-20T04:36:18.689Z,15.47
2018-12-20T04:38:46.690Z,17.10
2018-12-20T04:41:14.666Z,16.03
2018-12-20T04:43:42.655Z,15.63
2018-12-20T04:46:10.667Z,16.53
2018-12-20T04:48:38.618Z,16.73
2018-12-20T04:51:06.702Z,15.70
2018-12-20T04:53:34.564Z,16.40
2018-12-20T04:56:02.448Z,16.07
2018-12-20T04:58:30.435Z,17.13
2018-12-20T05:00:58.537Z,15.73
2018-12-20T05:03:26.728Z,16.83
2018-12-20T05:05:55.131Z,16.03
2018-12-20T05:08:23.123Z,16.93
2018-12-20T05:10:51.029Z,18.43
2018-12-20T05:13:18.995Z,16.97
2018-12-20T05:15:55.848Z,17.83
2018-12-20T05:18:17.225Z,18.00
2018-12-20T05:20:45.041Z,17.03
2018-12-20T05:23:13.099Z,16.50
2018-12-20T05:25:41.004Z,17.57
2018-12-20T05:28:08.855Z,16.13
2018-12-20T05:30:36.956Z,16.53
2018-12-20T05:33:04.943Z,15.73
2018-12-20T05:35:32.798Z,17.20
2018-12-20T05:38:00.790Z,17.07
2018-12-20T05:40:28.970Z,16.00
2018-12-20T05:42:56.815Z,15.50
2018-12-20T05:45:24.760Z,15.67
2018-12-20T05:47:52.876Z,14.77
2018-12-20T05:50:20.880Z,16.00
2018-12-20T05:52:48.832Z,14.47
2018-12-20T05:55:16.784Z,14.63
2018-12-20T05:57:44.720Z,15.83
2018-12-20T06:00:12.781Z,14.73
2018-12-20T06:02:40.714Z,15.27
2018-12-20T06:05:08.764Z,15.43
2018-12-20T06:07:36.871Z,15.80
2018-12-20T06:10:05.000Z,16.33
2018-12-20T06:12:32.858Z,16.13
2018-12-20T06:15:00.638Z,15.50
2018-12-20T06:17:28.531Z,16.90
2018-12-20T06:19:56.610Z,15.30
2018-12-20T06:22:24.606Z,16.07
2018-12-20T06:24:52.587Z,16.30
2018-12-20T06:27:20.537Z,15.70
2018-12-20T06:29:48.356Z,15.97
2018-12-20T06:32:16.181Z,16.07
2018-12-20T06:34:44.042Z,16.43
2018-12-20T06:37:11.843Z,16.40
2018-12-20T06:39:39.635Z,17.23
2018-12-20T06:42:07.594Z,15.83
2018-12-20T06:44:35.426Z,15.83
2018-12-20T06:47:03.310Z,15.80
2018-12-20T06:49:31.121Z,17.33
2018-12-20T06:51:59.007Z,17.63
2018-12-20T06:54:26.886Z,16.50
2018-12-20T06:56:54.824Z,16.27
2018-12-20T06:59:22.661Z,16.10
2018-12-20T07:01:50.550Z,16.53
2018-12-20T07:04:18.341Z,16.60
2018-12-20T07:06:46.197Z,16.60
2018-12-20T07:09:14.034Z,15.93
2018-12-20T07:11:41.834Z,16.73
2018-12-20T07:14:09.680Z,16.17
2018-12-20T07:16:37.496Z,15.83
2018-12-20T07:19:05.366Z,15.87
2018-12-20T07:21:33.200Z,14.93
2018-12-20T07:24:01.026Z,15.70
2018-12-20T07:26:29.128Z,15.53
2018-12-20T07:28:56.962Z,15.37
2018-12-20T07:31:24.830Z,15.53
2018-12-20T07:33:52.740Z,15.27
2018-12-20T07:36:20.595Z,15.27
2018-12-20T07:38:48.405Z,14.93
2018-12-20T07:41:16.327Z,15.70
2018-12-20T07:43:44.195Z,14.43
2018-12-20T07:46:11.999Z,14.97
2018-12-20T07:48:39.779Z,15.03
2018-12-20T07:51:07.631Z,16.17
2018-12-20T07:53:35.443Z,15.23
2018-12-20T07:56:03.400Z,14.93
2018-12-20T07:58:31.204Z,14.73
2018-12-20T08:00:59.165Z,14.97
2018-12-20T08:03:27.017Z,15.27
2018-12-20T08:05:54.893Z,15.73
2018-12-20T08:08:22.716Z,14.63
2018-12-20T08:10:50.563Z,15.20
2018-12-20T08:13:25.200Z,16.03
2018-12-20T08:15:53.074Z,15.10
2018-12-20T08:18:20.842Z,15.73
2018-12-20T08:20:48.676Z,16.03
2018-12-20T08:23:16.536Z,17.23
2018-12-20T08:25:44.432Z,15.47
2018-12-20T08:28:12.278Z,16.77
2018-12-20T08:30:40.105Z,16.07
2018-12-20T08:33:07.958Z,17.37
2018-12-20T08:35:35.740Z,17.07
2018-12-20T08:38:03.622Z,16.53
2018-12-20T08:40:31.418Z,15.40
2018-12-20T08:42:59.219Z,15.70
2018-12-20T08:45:27.047Z,16.17
2018-12-20T08:47:54.886Z,16.57
2018-12-20T08:50:22.721Z,15.60
2018-12-20T08:52:50.548Z,15.60
2018-12-20T08:55:18.397Z,15.43
2018-12-20T08:57:46.270Z,14.63
2018-12-20T09:00:14.134Z,15.80
2018-12-20T09:02:42.028Z,15.13
2018-12-20T09:05:09.954Z,14.93
2018-12-20T09:07:37.821Z,15.30
2018-12-20T09:10:05.834Z,15.60
2018-12-20T09:12:33.674Z,15.80
2018-12-20T09:15:01.492Z,14.73
2018-12-20T09:17:29.318Z,15.23
2018-12-20T09:19:57.154Z,15.07
2018-12-20T09:22:24.971Z,14.97
2018-12-20T09:24:52.868Z,15.73
2018-12-20T09:27:20.752Z,14.17
2018-12-20T09:29:48.619Z,14.97
2018-12-20T09:32:16.469Z,13.57
2018-12-20T09:34:44.319Z,14.47
2018-12-20T09:37:12.159Z,14.43
2018-12-20T09:39:39.975Z,13.10
2018-12-20T09:42:07.772Z,14.10
2018-12-20T09:44:35.614Z,14.00
2018-12-20T09:47:11.842Z,14.10
2018-12-20T09:49:38.951Z,15.13
2018-12-20T09:52:06.948Z,14.63
2018-12-20T09:54:34.797Z,14.60
2018-12-20T09:57:02.758Z,13.73
2018-12-20T09:59:30.572Z,14.10
2018-12-20T10:01:58.439Z,17.43
2018-12-20T10:04:26.280Z,14.50
2018-12-20T10:06:54.137Z,12.47
2018-12-20T10:09:21.959Z,11.77
2018-12-20T10:11:49.799Z,11.03
2018-12-20T10:14:17.735Z,10.20
2018-12-20T10:16:45.503Z,10.63
2018-12-20T10:19:13.476Z,9.93
2018-12-20T10:21:41.302Z,8.90
2018-12-20T10:24:09.116Z,8.23
2018-12-20T10:26:36.929Z,7.60
2018-12-20T10:29:04.770Z,8.60
2018-12-20T10:31:32.555Z,6.60
2018-12-20T10:34:00.433Z,7.53
2018-12-20T10:36:28.240Z,6.67
2018-12-20T10:38:56.139Z,5.67
2018-12-20T10:41:23.951Z,5.13
2018-12-20T10:43:51.752Z,5.53
2018-12-20T10:46:19.620Z,4.60
2018-12-20T10:48:47.471Z,4.50
2018-12-20T10:51:15.317Z,4.20
2018-12-20T10:53:43.201Z,4.27
2018-12-20T10:56:11.116Z,4.07
2018-12-20T10:58:38.909Z,4.30
2018-12-20T11:02:11.991Z,4.63
2018-12-20T11:04:45.405Z,4.77
2018-12-20T11:07:18.832Z,4.70
2018-12-20T11:09:52.350Z,5.27
2018-12-20T11:12:28.979Z,5.40
2018-12-20T11:14:56.843Z,5.00
2018-12-20T11:17:24.863Z,5.90
2018-12-20T11:19:52.694Z,5.77
2018-12-20T11:22:20.547Z,5.77
2018-12-20T11:24:48.360Z,6.13
2018-12-20T11:27:16.235Z,5.93
2018-12-20T11:29:44.066Z,6.27
2018-12-20T11:32:11.866Z,6.03
2018-12-20T11:34:39.732Z,6.33
2018-12-20T11:37:07.698Z,6.07
2018-12-20T11:39:35.511Z,6.33
2018-12-20T11:42:03.302Z,5.87
2018-12-20T11:44:31.125Z,6.20
2018-12-20T11:46:58.941Z,6.43
2018-12-20T11:49:26.790Z,6.43
2018-12-20T11:51:54.674Z,6.20
2018-12-20T11:54:22.635Z,6.23
2018-12-20T11:56:50.512Z,6.47
2018-12-20T11:59:18.328Z,5.70
2018-12-20T12:01:46.454Z,5.73
2018-12-20T12:04:14.307Z,5.87
2018-12-20T12:06:42.175Z,6.17
2018-12-20T12:09:10.010Z,6.87
2018-12-20T12:11:37.874Z,5.63
2018-12-20T12:14:05.729Z,5.83
2018-12-20T12:16:33.724Z,5.60
2018-12-20T12:19:01.578Z,5.70
2018-12-20T12:21:29.518Z,5.27
2018-12-20T12:23:57.347Z,4.13
2018-12-20T12:26:25.239Z,3.80
2018-12-20T12:28:53.075Z,4.83
2018-12-20T12:31:21.010Z,4.40
2018-12-20T12:33:48.800Z,5.40
2018-12-20T12:36:16.606Z,5.60
2018-12-20T12:38:44.446Z,6.17
2018-12-20T12:41:12.235Z,5.37
2018-12-20T12:43:40.119Z,4.37
2018-12-20T12:46:08.046Z,3.63
2018-12-20T12:48:35.861Z,3.80
2018-12-20T12:51:03.726Z,3.63
2018-12-20T12:53:31.702Z,3.30
2018-12-20T12:55:59.571Z,2.93
2018-12-20T12:58:27.625Z,3.40
2018-12-20T13:00:55.565Z,3.00
2018-12-20T13:03:23.378Z,3.13
2018-12-20T13:05:51.276Z,3.40
2018-12-20T13:08:19.295Z,3.63
2018-12-20T13:10:47.139Z,3.50
2018-12-20T13:13:14.967Z,2.93
2018-12-20T13:15:42.936Z,3.87
2018-12-20T13:18:13.856Z,3.70
2018-12-20T13:20:40.673Z,3.40
2018-12-20T13:23:08.517Z,3.13
2018-12-20T13:25:36.371Z,2.77
2018-12-20T13:28:04.435Z,2.80
2018-12-20T13:30:32.300Z,2.67
2018-12-20T13:33:00.151Z,2.63
2018-12-20T13:35:27.974Z,2.70
2018-12-20T13:37:55.868Z,2.57
2018-12-20T13:40:23.744Z,2.60
2018-12-20T13:42:51.686Z,3.03
2018-12-20T13:45:19.667Z,3.10
2018-12-20T13:47:47.483Z,2.83
2018-12-20T13:50:15.363Z,2.37
2018-12-20T13:52:43.363Z,2.30
2018-12-20T13:55:11.384Z,2.73
2018-12-20T13:57:39.239Z,2.63
2018-12-20T14:00:11.611Z,2.10
2018-12-20T14:02:39.409Z,2.40
2018-12-20T14:05:07.544Z,3.27
2018-12-20T14:07:35.367Z,3.40
2018-12-20T14:10:03.595Z,2.80
2018-12-20T14:12:31.423Z,3.63
2018-12-20T14:14:59.248Z,2.17
2018-12-20T14:17:27.107Z,3.40
2018-12-20T14:19:54.985Z,2.40
2018-12-20T14:22:23.075Z,2.30
2018-12-20T14:24:50.907Z,3.37
2018-12-20T14:27:18.781Z,3.33
2018-12-20T14:29:47.185Z,4.13
2018-12-20T14:32:15.119Z,4.10
2018-12-20T14:34:42.919Z,4.77
2018-12-20T14:37:10.735Z,4.57
2018-12-20T14:39:38.694Z,3.30
2018-12-20T14:42:06.650Z,3.87
2018-12-20T14:44:34.532Z,2.33
2018-12-20T14:47:02.366Z,2.97
2018-12-20T14:49:30.210Z,2.60
2018-12-20T14:51:58.087Z,2.83
2018-12-20T14:54:27.266Z,3.00
2018-12-20T14:56:55.259Z,3.40
2018-12-20T14:59:23.065Z,2.33
2018-12-20T15:01:50.891Z,2.13
2018-12-20T15:04:18.753Z,2.10
2018-12-20T15:06:46.604Z,2.23
2018-12-20T15:09:14.910Z,1.90
2018-12-20T15:11:42.793Z,1.97
2018-12-20T15:14:10.598Z,2.20
2018-12-20T15:16:38.439Z,2.03
2018-12-20T15:19:06.263Z,2.00
2018-12-20T15:21:34.113Z,1.63
2018-12-20T15:24:01.962Z,1.90
2018-12-20T15:26:29.812Z,1.70
2018-12-20T15:28:57.654Z,1.77
2018-12-20T15:31:25.446Z,1.80
2018-12-20T15:33:53.286Z,2.37
2018-12-20T15:36:21.160Z,2.27
2018-12-20T15:38:49.887Z,2.17
2018-12-20T15:41:17.974Z,1.93
2018-12-20T15:43:45.833Z,2.00
2018-12-20T15:46:13.611Z,1.87
2018-12-20T15:48:41.507Z,2.07
2018-12-20T15:51:09.343Z,1.97
2018-12-20T15:53:37.214Z,1.90
2018-12-20T15:56:05.119Z,2.13
2018-12-20T15:58:33.033Z,2.60
2018-12-20T16:01:00.921Z,2.97
2018-12-20T16:03:28.775Z,2.10
2018-12-20T16:05:56.615Z,2.07
2018-12-20T16:08:24.630Z,2.37
2018-12-20T16:10:52.509Z,2.53
2018-12-20T16:13:20.387Z,2.90
2018-12-20T16:15:48.371Z,3.43
2018-12-20T16:18:16.257Z,2.40
2018-12-20T16:20:44.091Z,2.47
2018-12-20T16:23:11.964Z,2.53
2018-12-20T16:25:39.802Z,1.97
2018-12-20T16:28:07.715Z,1.83
2018-12-20T16:30:36.041Z,1.80
2018-12-20T16:33:03.918Z,1.83
2018-12-20T16:35:31.737Z,1.93
2018-12-20T16:37:59.582Z,1.80
2018-12-20T16:40:27.477Z,2.20
2018-12-20T16:42:55.367Z,2.63
2018-12-20T16:45:23.163Z,3.53
2018-12-20T16:47:51.005Z,2.13
2018-12-20T16:50:18.912Z,2.40
2018-12-20T16:52:46.764Z,2.30
2018-12-20T16:55:14.583Z,2.60
2018-12-20T16:57:42.426Z,2.10
2018-12-20T17:00:11.678Z,2.00
2018-12-20T17:02:39.801Z,2.10
2018-12-20T17:05:07.698Z,2.00
2018-12-20T17:07:35.571Z,1.97
2018-12-20T17:10:03.553Z,1.90
2018-12-20T17:12:31.562Z,2.63
2018-12-20T17:14:59.604Z,2.77
2018-12-20T17:17:27.574Z,2.47
2018-12-20T17:20:01.996Z,2.30
2018-12-20T17:22:29.969Z,2.03
2018-12-20T17:24:57.838Z,2.23
2018-12-20T17:27:25.655Z,2.30
2018-12-20T17:29:53.456Z,2.40
2018-12-20T17:32:21.308Z,2.97
2018-12-20T17:34:49.123Z,2.73
2018-12-20T17:37:17.018Z,2.43
2018-12-20T17:39:51.763Z,2.30
2018-12-20T17:42:22.792Z,2.33
2018-12-20T17:44:50.589Z,2.20
2018-12-20T17:47:18.425Z,2.50
2018-12-20T17:49:46.272Z,2.50
2018-12-20T17:52:14.066Z,2.50
2018-12-20T17:54:41.935Z,4.77
2018-12-20T17:57:09.778Z,5.43
2018-12-20T17:59:37.570Z,4.27
2018-12-20T18:02:05.762Z,7.93
2018-12-20T18:04:33.598Z,3.97
2018-12-20T18:07:01.444Z,4.23
2018-12-20T18:09:29.255Z,3.07
2018-12-20T18:11:57.112Z,4.17
2018-12-20T18:14:24.887Z,3.73
2018-12-20T18:16:52.764Z,3.17
2018-12-20T18:19:20.583Z,3.20
2018-12-20T18:21:48.443Z,3.60
2018-12-20T18:24:16.694Z,4.07
2018-12-20T18:26:44.615Z,3.20
2018-12-20T18:29:12.447Z,2.60
2018-12-20T18:31:40.308Z,2.60
2018-12-20T18:34:08.193Z,2.60
2018-12-20T18:36:35.993Z,3.00
2018-12-20T18:39:06.450Z,2.60
2018-12-20T18:41:34.404Z,3.27
2018-12-20T18:44:02.941Z,3.00
2018-12-20T18:46:30.801Z,2.83
2018-12-20T18:48:58.889Z,2.63
2018-12-20T18:51:26.846Z,3.37
2018-12-20T18:53:54.681Z,4.83
2018-12-20T18:56:22.529Z,3.73
2018-12-20T18:58:50.386Z,3.87
2018-12-20T19:01:18.223Z,5.67
2018-12-20T19:03:46.040Z,5.13
2018-12-20T19:06:13.941Z,6.13
2018-12-20T19:08:41.805Z,6.07
2018-12-20T19:11:09.615Z,6.93
2018-12-20T19:13:38.339Z,5.90
2018-12-20T19:16:06.340Z,6.87
2018-12-20T19:18:35.320Z,6.40
2018-12-20T19:21:03.101Z,6.20
2018-12-20T19:23:31.086Z,6.83
2018-12-20T19:26:00.368Z,7.07
2018-12-20T19:28:28.239Z,6.10
2018-12-20T19:30:56.050Z,5.00
2018-12-20T19:33:23.925Z,5.83
2018-12-20T19:35:53.550Z,6.47
2018-12-20T19:38:21.366Z,5.33
2018-12-20T19:40:49.219Z,6.30
2018-12-20T19:43:16.999Z,5.03
2018-12-20T19:45:46.175Z,5.50
2018-12-20T19:48:14.343Z,4.67
2018-12-20T19:50:42.292Z,5.30
2018-12-20T19:53:10.758Z,4.27
2018-12-20T19:55:38.871Z,4.77
2018-12-20T19:58:06.707Z,5.07
2018-12-20T20:00:35.028Z,4.43
2018-12-20T20:03:03.258Z,5.00
2018-12-20T20:05:31.111Z,4.30
2018-12-20T20:07:59.199Z,5.43
2018-12-20T20:10:27.368Z,5.77
2018-12-20T20:12:55.241Z,6.40
2018-12-20T20:15:24.321Z,6.37
2018-12-20T20:17:53.908Z,6.77
2018-12-20T20:20:22.448Z,7.73
2018-12-20T20:22:50.673Z,9.77
2018-12-20T20:25:18.841Z,7.87
2018-12-20T20:27:47.420Z,8.57
2018-12-20T20:30:15.903Z,7.77
2018-12-20T20:32:43.947Z,8.17
2018-12-20T20:35:11.878Z,7.60
2018-12-20T20:37:39.636Z,6.70
2018-12-20T20:40:09.659Z,7.70
2018-12-20T20:42:37.534Z,7.77
2018-12-20T20:45:06.098Z,8.83
2018-12-20T20:47:34.443Z,7.83
2018-12-20T20:50:02.938Z,7.93
2018-12-20T20:52:31.273Z,11.33
2018-12-20T20:54:59.658Z,10.67
2018-12-20T20:57:27.932Z,9.73
2018-12-20T20:59:56.267Z,8.03
2018-12-20T21:02:24.243Z,7.23
2018-12-20T21:04:52.191Z,7.70
2018-12-20T21:07:20.020Z,8.00
2018-12-20T21:09:47.847Z,7.43
2018-12-20T21:12:22.854Z,7.47
2018-12-20T21:14:52.404Z,8.10
2018-12-20T21:17:15.567Z,6.93
2018-12-20T21:19:43.463Z,6.73
2018-12-20T21:22:11.442Z,6.53
2018-12-20T21:24:39.271Z,6.53
2018-12-20T21:27:07.151Z,6.60
2018-12-20T21:29:35.019Z,6.03
2018-12-20T21:32:02.875Z,5.87
2018-12-20T21:34:30.764Z,6.70
2018-12-20T21:36:58.639Z,5.60
2018-12-20T21:39:26.491Z,8.00
2018-12-20T21:41:54.325Z,6.50
2018-12-20T21:44:22.262Z,6.57
2018-12-20T21:46:50.978Z,6.03
2018-12-20T21:49:18.869Z,6.30
2018-12-20T21:51:46.756Z,6.60
2018-12-20T21:54:14.619Z,6.80
2018-12-20T21:56:42.467Z,6.70
2018-12-20T21:59:10.281Z,7.43
2018-12-20T22:01:38.163Z,7.57
2018-12-20T22:04:06.025Z,6.53
2018-12-20T22:06:33.876Z,6.70
2018-12-20T22:09:01.723Z,6.63
2018-12-20T22:11:29.532Z,6.97
2018-12-20T22:13:57.502Z,7.37
2018-12-20T22:16:25.335Z,6.67
2018-12-20T22:18:53.118Z,6.90
2018-12-20T22:21:20.951Z,6.67
2018-12-20T22:23:48.773Z,6.70
2018-12-20T22:26:16.605Z,6.93
2018-12-20T22:28:44.416Z,6.83
2018-12-20T22:31:12.315Z,6.13
2018-12-20T22:33:40.141Z,6.07
2018-12-20T22:36:07.964Z,6.13
2018-12-20T22:38:35.763Z,6.30
2018-12-20T22:41:03.579Z,6.40
2018-12-20T22:43:31.420Z,6.60
2018-12-20T22:45:59.201Z,6.70
2018-12-20T22:48:27.054Z,7.03
2018-12-20T22:50:56.009Z,7.10
2018-12-20T22:53:24.283Z,8.60
2018-12-20T22:55:52.241Z,7.07
2018-12-20T22:58:20.120Z,8.63
2018-12-20T23:00:53.403Z,9.20
2018-12-20T23:03:21.491Z,8.30
2018-12-20T23:05:49.367Z,9.20
2018-12-20T23:08:17.233Z,8.00
2018-12-20T23:10:45.048Z,8.20
2018-12-20T23:13:12.996Z,9.47
2018-12-20T23:15:40.875Z,8.60
2018-12-20T23:18:08.688Z,7.70
2018-12-20T23:20:36.535Z,7.90
2018-12-20T23:23:04.402Z,12.93
2018-12-20T23:25:32.305Z,7.73
2018-12-20T23:28:00.163Z,7.83
2018-12-20T23:30:28.030Z,8.57
2018-12-20T23:32:55.910Z,8.90
2018-12-20T23:35:23.797Z,7.77
2018-12-20T23:37:51.746Z,8.07
2018-12-20T23:40:19.566Z,8.63
2018-12-20T23:42:47.451Z,8.43
2018-12-20T23:45:15.304Z,7.67
2018-12-20T23:47:43.135Z,8.27
2018-12-20T23:50:11.178Z,7.77
2018-12-20T23:52:39.011Z,7.70
2018-12-20T23:55:06.853Z,8.53
2018-12-20T23:57:34.809Z,8.17
